createdAt,value
2022-09-14T00:01:36.195Z,20.31
2022-09-14T00:04:10.021Z,20.26
2022-09-14T00:06:38.171Z,20.26
2022-09-14T00:09:09.772Z,20.24
2022-09-14T00:11:38.871Z,20.24
2022-09-14T00:14:07.696Z,20.18
2022-09-14T00:16:38.422Z,20.18
2022-09-14T00:19:09.420Z,20.14
2022-09-14T00:21:39.421Z,20.10
2022-09-14T00:24:08.283Z,20.07
2022-09-14T00:26:36.563Z,20.09
2022-09-14T00:29:05.885Z,20.07
2022-09-14T00:31:36.061Z,20.07
2022-09-14T00:34:04.447Z,20.08
2022-09-14T00:36:33.522Z,20.15
2022-09-14T00:39:01.814Z,20.22
2022-09-14T00:41:35.378Z,20.20
2022-09-14T00:44:27.696Z,20.17
2022-09-14T00:46:59.700Z,20.16
2022-09-14T00:49:33.873Z,20.22
2022-09-14T00:52:34.039Z,20.26
2022-09-14T00:55:07.749Z,20.23
2022-09-14T00:57:40.021Z,20.24
2022-09-14T01:00:28.848Z,20.23
2022-09-14T01:02:57.093Z,20.19
2022-09-14T01:05:40.100Z,20.16
2022-09-14T01:08:29.110Z,20.14
2022-09-14T01:11:15.441Z,20.11
2022-09-14T01:14:12.355Z,20.11
2022-09-14T01:16:48.821Z,20.09
2022-09-14T01:19:26.223Z,20.07
2022-09-14T01:21:57.875Z,20.04
2022-09-14T01:24:58.379Z,20.02
2022-09-14T01:27:45.220Z,20.00
2022-09-14T01:30:21.572Z,20.01
2022-09-14T01:33:05.755Z,20.00
2022-09-14T01:35:52.276Z,19.98
2022-09-14T01:38:34.830Z,20.01
2022-09-14T01:41:07.390Z,20.00
2022-09-14T01:43:42.083Z,19.96
2022-09-14T01:46:14.505Z,19.94
2022-09-14T01:48:57.171Z,19.95
2022-09-14T01:51:30.778Z,19.95
2022-09-14T01:54:27.902Z,19.98
2022-09-14T01:57:19.734Z,19.98
2022-09-14T01:59:50.225Z,19.99
2022-09-14T02:02:35.695Z,20.03
2022-09-14T02:05:22.284Z,20.06
2022-09-14T02:07:50.068Z,20.06
2022-09-14T02:10:19.055Z,20.03
2022-09-14T02:12:47.426Z,20.03
2022-09-14T02:15:16.507Z,20.02
2022-09-14T02:17:44.676Z,20.00
2022-09-14T02:20:20.061Z,20.03
2022-09-14T02:22:47.939Z,20.04
2022-09-14T02:25:15.792Z,20.05
2022-09-14T02:27:43.456Z,20.08
2022-09-14T02:30:11.834Z,20.12
2022-09-14T02:32:56.494Z,20.14
2022-09-14T02:35:33.183Z,20.13
2022-09-14T02:38:35.523Z,20.16
2022-09-14T02:41:17.673Z,20.16
2022-09-14T02:44:00.652Z,20.18
2022-09-14T02:46:39.390Z,20.22
2022-09-14T02:49:21.686Z,20.22
2022-09-14T02:52:07.409Z,20.22
2022-09-14T02:54:51.678Z,20.20
2022-09-14T02:57:19.435Z,20.15
2022-09-14T02:59:47.157Z,20.17
2022-09-14T03:02:15.194Z,20.14
2022-09-14T03:04:43.372Z,20.13
2022-09-14T03:07:11.335Z,20.11
2022-09-14T03:09:38.972Z,20.13
2022-09-14T03:12:06.736Z,20.12
2022-09-14T03:14:34.520Z,20.11
2022-09-14T03:17:02.131Z,20.10
2022-09-14T03:19:29.738Z,20.08
2022-09-14T03:21:57.351Z,20.10
2022-09-14T03:24:24.972Z,20.18
2022-09-14T03:26:53.319Z,20.31
2022-09-14T03:29:20.950Z,20.37
2022-09-14T03:31:48.670Z,20.45
2022-09-14T03:34:16.541Z,20.55
2022-09-14T03:36:44.161Z,20.62
2022-09-14T03:39:11.881Z,20.69
2022-09-14T03:41:39.520Z,20.74
2022-09-14T03:44:07.253Z,20.77
2022-09-14T03:46:35.222Z,20.82
2022-09-14T03:49:02.924Z,20.86
2022-09-14T03:51:30.639Z,20.88
2022-09-14T03:53:58.256Z,20.91
2022-09-14T03:56:26.034Z,20.94
2022-09-14T04:01:23.437Z,20.99
2022-09-14T04:03:51.963Z,21.00
2022-09-14T04:06:20.820Z,21.02
2022-09-14T04:08:49.277Z,21.01
2022-09-14T04:11:22.165Z,21.02
2022-09-14T04:13:50.518Z,21.02
2022-09-14T04:16:21.849Z,21.04
2022-09-14T04:18:50.078Z,21.07
2022-09-14T04:21:20.185Z,21.10
2022-09-14T04:24:14.705Z,21.09
2022-09-14T04:26:36.305Z,21.10
2022-09-14T04:29:04.279Z,21.11
2022-09-14T04:31:33.738Z,21.09
2022-09-14T04:34:01.491Z,21.10
2022-09-14T04:36:31.965Z,21.10
2022-09-14T04:39:03.434Z,21.08
2022-09-14T04:41:32.322Z,21.09
2022-09-14T04:44:01.042Z,21.08
2022-09-14T04:46:36.126Z,21.09
2022-09-14T04:49:04.240Z,21.08
2022-09-14T04:51:34.236Z,21.10
2022-09-14T04:54:03.323Z,21.07
2022-09-14T04:56:34.201Z,21.07
2022-09-14T04:59:05.191Z,21.07
2022-09-14T05:01:38.652Z,21.05
2022-09-14T05:04:08.178Z,21.05
2022-09-14T05:06:38.944Z,21.02
2022-09-14T05:09:18.348Z,21.00
2022-09-14T05:11:47.051Z,20.95
2022-09-14T05:14:15.805Z,20.99
2022-09-14T05:16:44.995Z,20.96
2022-09-14T05:19:19.103Z,20.96
2022-09-14T05:21:47.464Z,20.94
2022-09-14T05:24:18.200Z,20.95
2022-09-14T05:26:46.922Z,20.90
2022-09-14T05:29:19.405Z,20.92
2022-09-14T05:31:47.957Z,20.92
2022-09-14T05:34:15.920Z,20.89
2022-09-14T05:36:43.601Z,20.93
2022-09-14T05:39:11.594Z,20.99
2022-09-14T05:41:39.588Z,21.00
2022-09-14T05:44:07.848Z,20.98
2022-09-14T05:46:35.830Z,20.95
2022-09-14T05:49:03.509Z,20.90
2022-09-14T05:51:31.140Z,20.87
2022-09-14T05:54:00.325Z,20.86
2022-09-14T05:56:31.711Z,20.81
2022-09-14T05:59:00.478Z,20.78
2022-09-14T06:01:31.298Z,20.83
2022-09-14T06:04:01.573Z,20.80
2022-09-14T06:06:31.031Z,20.80
2022-09-14T06:08:59.094Z,20.75
2022-09-14T06:11:39.785Z,20.83
2022-09-14T06:14:07.414Z,20.86
2022-09-14T06:16:35.818Z,20.85
2022-09-14T06:19:03.609Z,20.85
2022-09-14T06:21:33.381Z,20.84
2022-09-14T06:24:01.506Z,20.84
2022-09-14T06:26:29.446Z,20.84
2022-09-14T06:28:57.566Z,20.84
2022-09-14T06:31:26.426Z,20.83
2022-09-14T06:33:54.618Z,20.84
2022-09-14T06:36:25.816Z,20.85
2022-09-14T06:38:54.465Z,20.85
2022-09-14T06:41:24.501Z,20.87
2022-09-14T06:43:53.247Z,20.88
2022-09-14T06:46:27.056Z,20.90
2022-09-14T06:49:06.446Z,20.93
2022-09-14T06:51:43.145Z,20.98
2022-09-14T06:54:13.046Z,21.01
2022-09-14T06:56:42.010Z,21.05
2022-09-14T06:59:11.695Z,21.09
2022-09-14T07:01:39.726Z,21.13
2022-09-14T07:04:07.891Z,21.18
2022-09-14T07:07:01.588Z,21.23
2022-09-14T07:09:29.326Z,21.32
2022-09-14T07:11:57.078Z,21.36
2022-09-14T07:14:24.646Z,21.44
2022-09-14T07:16:52.338Z,21.51
2022-09-14T07:19:19.996Z,21.56
2022-09-14T07:21:49.175Z,21.64
2022-09-14T07:24:17.050Z,21.70
2022-09-14T07:26:44.769Z,21.79
2022-09-14T07:29:15.420Z,21.83
2022-09-14T07:31:49.105Z,21.89
2022-09-14T07:34:17.699Z,21.97
2022-09-14T07:36:45.946Z,22.03
2022-09-14T07:39:17.503Z,22.10
2022-09-14T07:41:46.089Z,22.13
2022-09-14T07:44:18.936Z,22.19
2022-09-14T07:46:47.349Z,22.24
2022-09-14T07:49:16.761Z,22.26
2022-09-14T07:51:44.742Z,22.29
2022-09-14T07:54:14.579Z,22.35
2022-09-14T07:56:43.511Z,22.36
2022-09-14T08:02:00.769Z,22.49
2022-09-14T08:04:28.454Z,22.56
2022-09-14T08:06:56.131Z,22.65
2022-09-14T08:09:23.737Z,22.71
2022-09-14T08:11:51.780Z,22.77
2022-09-14T08:14:19.397Z,22.81
2022-09-14T08:16:47.113Z,22.88
2022-09-14T08:19:18.005Z,22.92
2022-09-14T08:21:47.582Z,23.00
2022-09-14T08:24:21.207Z,23.05
2022-09-14T08:26:49.805Z,23.05
2022-09-14T08:29:19.514Z,23.06
2022-09-14T08:31:48.187Z,23.04
2022-09-14T08:34:17.157Z,22.82
2022-09-14T08:36:46.365Z,22.47
2022-09-14T08:39:15.951Z,22.01
2022-09-14T08:41:56.792Z,21.51
2022-09-14T08:44:32.350Z,21.02
2022-09-14T08:47:19.250Z,20.73
2022-09-14T08:50:03.951Z,20.48
2022-09-14T08:52:41.260Z,20.30
2022-09-14T08:55:42.400Z,20.20
2022-09-14T08:58:30.782Z,20.12
2022-09-14T09:01:23.345Z,20.07
2022-09-14T09:04:02.934Z,20.09
2022-09-14T09:06:39.949Z,20.11
2022-09-14T09:09:32.301Z,20.16
2022-09-14T09:12:01.019Z,20.21
2022-09-14T09:14:35.290Z,20.27
2022-09-14T09:17:08.135Z,20.35
2022-09-14T09:19:42.798Z,20.44
2022-09-14T09:22:17.164Z,20.55
2022-09-14T09:24:49.986Z,20.66
2022-09-14T09:27:18.070Z,20.75
2022-09-14T09:29:46.319Z,20.88
2022-09-14T09:32:19.594Z,20.98
2022-09-14T09:34:47.777Z,21.10
2022-09-14T09:37:21.562Z,21.19
2022-09-14T09:39:49.452Z,21.30
2022-09-14T09:42:28.050Z,21.41
2022-09-14T09:45:03.863Z,21.53
2022-09-14T09:47:38.933Z,21.64
2022-09-14T09:50:15.663Z,21.74
2022-09-14T09:52:52.090Z,21.83
2022-09-14T09:55:22.134Z,21.93
2022-09-14T09:57:49.971Z,22.02
2022-09-14T10:00:29.005Z,22.08
2022-09-14T10:02:57.402Z,22.16
2022-09-14T10:05:30.053Z,22.23
2022-09-14T10:08:01.505Z,22.33
2022-09-14T10:10:47.318Z,22.42
2022-09-14T10:13:30.131Z,22.55
2022-09-14T10:16:25.675Z,22.65
2022-09-14T10:18:54.528Z,22.74
2022-09-14T10:21:25.368Z,22.82
2022-09-14T10:24:17.235Z,22.89
2022-09-14T10:26:45.197Z,22.96
2022-09-14T10:29:42.517Z,23.03
2022-09-14T10:32:25.289Z,23.08
2022-09-14T10:34:53.023Z,23.16
2022-09-14T10:37:36.297Z,23.24
2022-09-14T10:40:20.056Z,23.30
2022-09-14T10:43:04.690Z,23.34
2022-09-14T10:46:03.546Z,23.37
2022-09-14T10:48:39.374Z,23.43
2022-09-14T10:51:28.262Z,23.47
2022-09-14T10:54:12.567Z,23.46
2022-09-14T10:57:20.073Z,23.47
2022-09-14T10:59:56.742Z,23.45
2022-09-14T11:02:42.848Z,23.49
2022-09-14T11:05:26.739Z,23.53
2022-09-14T11:07:57.230Z,23.54
2022-09-14T11:10:46.832Z,23.58
2022-09-14T11:13:38.626Z,23.65
2022-09-14T11:16:20.157Z,23.67
2022-09-14T11:18:59.974Z,23.70
2022-09-14T11:21:33.517Z,23.73
2022-09-14T11:24:07.318Z,23.71
2022-09-14T11:26:43.890Z,23.71
2022-09-14T11:29:34.145Z,23.72
2022-09-14T11:32:20.819Z,23.74
2022-09-14T11:34:55.873Z,23.75
2022-09-14T11:37:41.257Z,23.78
2022-09-14T11:40:25.286Z,23.81
2022-09-14T11:43:16.475Z,23.86
2022-09-14T11:45:53.728Z,23.87
2022-09-14T11:48:42.288Z,23.92
2022-09-14T11:51:14.832Z,23.97
2022-09-14T11:53:44.677Z,24.02
2022-09-14T11:56:27.470Z,24.04
2022-09-14T11:58:57.540Z,24.07
2022-09-14T12:01:37.589Z,24.14
2022-09-14T12:04:11.859Z,24.14
2022-09-14T12:06:39.607Z,24.19
2022-09-14T12:09:32.946Z,24.22
2022-09-14T12:12:01.135Z,24.23
2022-09-14T12:14:35.426Z,24.21
2022-09-14T12:17:41.586Z,24.18
2022-09-14T12:20:38.541Z,24.21
2022-09-14T12:23:26.546Z,24.22
2022-09-14T12:25:59.393Z,24.18
2022-09-14T12:28:38.886Z,24.16
2022-09-14T12:31:08.869Z,24.15
2022-09-14T12:33:36.621Z,24.13
2022-09-14T12:36:34.020Z,24.07
2022-09-14T12:39:05.738Z,24.05
2022-09-14T12:41:36.608Z,24.01
2022-09-14T12:44:06.552Z,24.00
2022-09-14T12:46:40.081Z,24.01
2022-09-14T12:49:37.577Z,24.03
2022-09-14T12:52:26.931Z,24.00
2022-09-14T12:55:20.232Z,24.01
2022-09-14T12:58:04.246Z,23.98
2022-09-14T13:00:49.125Z,23.91
2022-09-14T13:13:34.480Z,23.83
2022-09-14T13:16:06.277Z,23.75
2022-09-14T13:18:39.171Z,23.72
2022-09-14T13:21:35.726Z,23.70
2022-09-14T13:24:03.592Z,23.67
2022-09-14T13:26:32.771Z,23.66
2022-09-14T13:29:02.534Z,23.58
2022-09-14T13:31:40.562Z,23.52
2022-09-14T13:34:08.477Z,23.49
2022-09-14T13:36:43.722Z,23.39
2022-09-14T13:39:36.136Z,23.30
2022-09-14T13:42:04.822Z,23.22
2022-09-14T13:44:38.043Z,23.18
2022-09-14T13:47:07.125Z,23.14
2022-09-14T13:49:36.330Z,23.05
2022-09-14T13:52:38.598Z,22.97
2022-09-14T13:55:34.676Z,22.88
2022-09-14T13:58:16.491Z,22.74
2022-09-14T14:01:03.222Z,22.67
2022-09-14T14:03:42.727Z,22.61
2022-09-14T14:06:26.247Z,22.57
2022-09-14T14:09:13.629Z,22.54
2022-09-14T14:11:44.928Z,22.59
2022-09-14T14:14:18.756Z,22.69
2022-09-14T14:17:25.032Z,22.75
2022-09-14T14:19:55.375Z,22.82
2022-09-14T14:22:29.981Z,22.87
2022-09-14T14:25:13.239Z,22.90
2022-09-14T14:27:48.927Z,22.91
2022-09-14T14:30:22.461Z,22.92
2022-09-14T14:32:54.652Z,22.96
2022-09-14T14:35:26.052Z,22.95
2022-09-14T14:37:54.011Z,22.93
2022-09-14T14:40:22.474Z,22.93
2022-09-14T14:42:51.797Z,22.98
2022-09-14T14:45:23.290Z,23.02
2022-09-14T14:47:51.718Z,23.02
2022-09-14T14:50:25.768Z,23.06
2022-09-14T14:52:53.613Z,23.06
2022-09-14T14:55:22.634Z,23.07
2022-09-14T14:57:51.376Z,23.10
2022-09-14T15:00:22.195Z,23.12
2022-09-14T15:02:50.638Z,23.13
2022-09-14T15:05:19.058Z,23.14
2022-09-14T15:07:47.089Z,23.09
2022-09-14T15:10:17.131Z,23.09
2022-09-14T15:12:45.429Z,23.08
2022-09-14T15:15:20.923Z,23.07
2022-09-14T15:17:48.772Z,23.04
2022-09-14T15:20:16.816Z,23.03
2022-09-14T15:22:44.522Z,23.05
2022-09-14T15:25:13.320Z,23.02
2022-09-14T15:27:41.589Z,23.04
2022-09-14T15:30:10.577Z,23.04
2022-09-14T15:32:38.610Z,23.05
2022-09-14T15:35:08.297Z,23.07
2022-09-14T15:37:35.977Z,23.05
2022-09-14T15:40:04.937Z,22.98
2022-09-14T15:42:32.616Z,22.93
2022-09-14T15:45:00.376Z,22.87
2022-09-14T15:47:31.652Z,22.85
2022-09-14T15:50:01.750Z,22.80
2022-09-14T15:52:29.385Z,22.76
2022-09-14T15:54:57.113Z,22.76
2022-09-14T15:57:24.729Z,22.76
2022-09-14T15:59:55.280Z,22.78
2022-09-14T16:02:23.144Z,22.80
2022-09-14T16:04:50.979Z,22.81
2022-09-14T16:07:18.798Z,22.86
2022-09-14T16:09:46.901Z,22.94
2022-09-14T16:12:14.988Z,22.95
2022-09-14T16:14:42.716Z,22.97
2022-09-14T16:17:12.262Z,22.96
2022-09-14T16:19:40.041Z,22.96
2022-09-14T16:22:07.782Z,22.95
2022-09-14T16:24:35.518Z,22.94
2022-09-14T16:27:03.195Z,22.94
2022-09-14T16:29:30.943Z,22.95
2022-09-14T16:31:58.722Z,22.96
2022-09-14T16:34:31.118Z,22.94
2022-09-14T16:36:59.701Z,22.92
2022-09-14T16:39:30.912Z,22.89
2022-09-14T16:41:59.655Z,22.85
2022-09-14T16:44:28.908Z,22.80
2022-09-14T16:46:59.056Z,22.77
2022-09-14T16:49:28.504Z,22.71
2022-09-14T16:51:57.535Z,22.68
2022-09-14T16:54:26.941Z,22.58
2022-09-14T16:56:59.128Z,22.51
2022-09-14T16:59:27.349Z,22.41
2022-09-14T17:01:55.795Z,22.35
2022-09-14T17:04:24.784Z,22.31
2022-09-14T17:06:54.066Z,22.26
2022-09-14T17:09:27.760Z,22.21
2022-09-14T17:11:56.471Z,22.16
2022-09-14T17:14:27.813Z,22.09
2022-09-14T17:16:56.057Z,22.06
2022-09-14T17:19:24.538Z,21.98
2022-09-14T17:21:53.968Z,21.95
2022-09-14T17:24:22.680Z,21.91
2022-09-14T17:26:50.550Z,21.86
2022-09-14T17:29:18.315Z,21.83
2022-09-14T17:31:46.581Z,21.78
2022-09-14T17:34:17.135Z,21.74
2022-09-14T17:36:45.826Z,21.71
2022-09-14T17:39:15.346Z,21.68
2022-09-14T17:41:43.876Z,21.66
2022-09-14T17:44:14.044Z,21.64
2022-09-14T17:46:51.716Z,21.60
2022-09-14T17:49:21.775Z,21.56
2022-09-14T17:51:50.546Z,21.53
2022-09-14T17:54:19.376Z,21.50
2022-09-14T17:56:47.288Z,21.45
2022-09-14T17:59:18.119Z,21.41
2022-09-14T18:01:45.887Z,21.37
2022-09-14T18:04:16.263Z,21.33
2022-09-14T18:06:47.228Z,21.29
2022-09-14T18:09:21.813Z,21.26
2022-09-14T18:11:50.630Z,21.26
2022-09-14T18:14:19.207Z,21.24
2022-09-14T18:16:47.258Z,21.22
2022-09-14T18:19:16.040Z,21.21
2022-09-14T18:21:45.882Z,21.21
2022-09-14T18:24:16.477Z,21.19
2022-09-14T18:26:45.844Z,21.18
2022-09-14T18:29:19.471Z,21.16
2022-09-14T18:31:47.209Z,21.14
2022-09-14T18:34:14.980Z,21.11
2022-09-14T18:36:42.770Z,21.10
2022-09-14T18:39:11.079Z,21.08
2022-09-14T18:41:38.846Z,21.04
2022-09-14T18:44:06.586Z,21.02
2022-09-14T18:46:34.360Z,21.01
2022-09-14T18:49:03.101Z,21.00
2022-09-14T18:51:32.158Z,20.98
2022-09-14T18:56:29.155Z,20.94
2022-09-14T18:58:57.634Z,20.94
2022-09-14T19:01:25.584Z,20.90
2022-09-14T19:03:54.878Z,20.86
2022-09-14T19:06:24.132Z,20.84
2022-09-14T19:08:51.983Z,20.80
2022-09-14T19:11:22.700Z,20.77
2022-09-14T19:13:55.597Z,20.76
2022-09-14T19:16:23.322Z,20.68
2022-09-14T19:18:51.298Z,20.53
2022-09-14T19:21:23.856Z,20.24
2022-09-14T19:24:18.144Z,20.00
2022-09-14T19:26:51.551Z,19.75
2022-09-14T19:29:22.518Z,19.49
2022-09-14T19:31:52.663Z,19.35
2022-09-14T19:34:22.064Z,19.21
2022-09-14T19:36:51.005Z,19.09
2022-09-14T19:39:18.633Z,18.97
2022-09-14T19:41:46.356Z,18.81
2022-09-14T19:44:16.342Z,18.69
2022-09-14T19:46:44.378Z,18.57
2022-09-14T19:49:15.927Z,18.51
2022-09-14T19:51:44.045Z,18.45
2022-09-14T19:54:12.442Z,18.42
2022-09-14T19:56:41.002Z,18.36
2022-09-14T19:59:09.450Z,18.35
2022-09-14T20:01:39.307Z,18.34
2022-09-14T20:04:08.395Z,18.31
2022-09-14T20:06:39.225Z,18.27
2022-09-14T20:09:18.900Z,18.22
2022-09-14T20:11:48.718Z,18.21
2022-09-14T20:14:19.856Z,18.18
2022-09-14T20:16:50.481Z,18.18
2022-09-14T20:19:20.646Z,18.18
2022-09-14T20:21:50.187Z,18.15
2022-09-14T20:24:20.651Z,18.12
2022-09-14T20:26:50.703Z,18.11
2022-09-14T20:29:20.238Z,18.09
2022-09-14T20:31:48.913Z,18.08
2022-09-14T20:34:19.311Z,18.05
2022-09-14T20:36:48.500Z,17.99
2022-09-14T20:39:16.525Z,17.94
2022-09-14T20:41:48.292Z,17.87
2022-09-14T20:44:16.948Z,17.81
2022-09-14T20:46:45.815Z,17.79
2022-09-14T20:49:16.458Z,17.76
2022-09-14T20:51:44.718Z,17.74
2022-09-14T20:54:14.956Z,17.71
2022-09-14T20:56:43.907Z,17.70
2022-09-14T20:59:14.492Z,17.70
2022-09-14T21:01:44.685Z,17.72
2022-09-14T21:04:18.458Z,17.74
2022-09-14T21:06:50.165Z,17.75
2022-09-14T21:09:21.682Z,17.77
2022-09-14T21:11:49.537Z,17.81
2022-09-14T21:14:19.244Z,17.82
2022-09-14T21:16:49.691Z,17.83
2022-09-14T21:19:21.071Z,17.82
2022-09-14T21:21:50.175Z,17.81
2022-09-14T21:24:19.960Z,17.81
2022-09-14T21:26:48.368Z,17.78
2022-09-14T21:29:21.352Z,17.79
2022-09-14T21:31:49.794Z,17.81
2022-09-14T21:34:18.141Z,17.80
2022-09-14T21:36:48.669Z,17.80
2022-09-14T21:39:20.293Z,17.81
2022-09-14T21:41:53.345Z,17.83
2022-09-14T21:44:23.761Z,17.82
2022-09-14T21:46:51.400Z,17.84
2022-09-14T21:49:22.987Z,17.84
2022-09-14T21:51:50.872Z,17.86
2022-09-14T21:54:18.523Z,17.86
2022-09-14T21:56:47.562Z,17.89
2022-09-14T21:59:21.385Z,17.88
2022-09-14T22:01:49.976Z,17.92
2022-09-14T22:04:20.231Z,17.95
2022-09-14T22:06:48.022Z,18.00
2022-09-14T22:09:17.636Z,18.01
2022-09-14T22:11:46.038Z,18.03
2022-09-14T22:14:16.018Z,18.04
2022-09-14T22:16:43.736Z,18.02
2022-09-14T22:19:17.643Z,18.01
2022-09-14T22:21:46.007Z,17.99
2022-09-14T22:24:20.711Z,17.99
2022-09-14T22:26:48.589Z,17.98
2022-09-14T22:29:16.206Z,17.97
2022-09-14T22:31:45.835Z,17.94
2022-09-14T22:34:14.734Z,17.92
2022-09-14T22:36:43.166Z,17.91
2022-09-14T22:39:11.833Z,17.88
2022-09-14T22:41:40.203Z,17.85
2022-09-14T22:44:08.817Z,17.84
2022-09-14T22:46:36.699Z,17.83
2022-09-14T22:49:05.216Z,17.82
2022-09-14T22:51:32.876Z,17.78
2022-09-14T22:54:00.499Z,17.79
2022-09-14T22:56:33.403Z,17.77
2022-09-14T22:59:03.002Z,17.72
2022-09-14T23:01:33.947Z,17.71
2022-09-14T23:04:07.378Z,17.71
2022-09-14T23:06:43.838Z,17.69
2022-09-14T23:09:14.625Z,17.70
2022-09-14T23:11:43.323Z,17.70
2022-09-14T23:14:11.513Z,17.69
2022-09-14T23:16:39.136Z,17.69
2022-09-14T23:19:10.727Z,17.69
2022-09-14T23:21:38.440Z,17.71
2022-09-14T23:24:08.047Z,17.71
2022-09-14T23:26:35.744Z,17.74
2022-09-14T23:29:06.744Z,17.74
2022-09-14T23:31:34.702Z,17.74
2022-09-14T23:34:04.685Z,17.77
2022-09-14T23:36:33.006Z,17.77
2022-09-14T23:39:00.773Z,17.78
2022-09-14T23:41:29.647Z,17.77
2022-09-14T23:43:57.336Z,17.77
2022-09-14T23:46:25.064Z,17.74
2022-09-14T23:48:52.984Z,17.75
2022-09-14T23:51:20.831Z,17.74
2022-09-14T23:53:48.762Z,17.75
2022-09-14T23:56:16.687Z,17.75
2022-09-14T23:58:44.696Z,17.74
